Time;durP1;ratioP1;P1;durP2;ratioP2;P2;SDS_P1;SDS_P2;PMS_P1;PMS_P2;Temp;Humidity;BMP_temperature;BMP_pressure;BME280_temperature;BME280_humidity;BME280_pressure;Samples;Min_cycle;Max_cycle;Signal;HPM_P1;HPM_P2
2023/08/21 00:00:13;;;;;;;7.43;6.75;;;;;;;18.52;100.00;93705.94;2090545;28;20025;-85
2023/08/21 00:01:15;;;;;;;8.23;7.00;;;;;;;18.61;100.00;93708.66;2090279;28;20115;-85
2023/08/21 00:02:16;;;;;;;7.63;6.82;;;;;;;18.61;100.00;93705.94;2090400;28;20029;-86
2023/08/21 00:03:17;;;;;;;9.48;6.72;;;;;;;18.59;100.00;93706.41;2114509;28;20027;-87
2023/08/21 00:04:18;;;;;;;7.25;6.68;;;;;;;18.57;100.00;93711.53;2113053;28;20035;-85
2023/08/21 00:05:19;;;;;;;7.68;6.97;;;;;;;18.52;100.00;93709.41;2090172;28;20465;-85
2023/08/21 00:06:20;;;;;;;10.25;6.85;;;;;;;18.50;100.00;93711.09;2089835;28;20108;-84
2023/08/21 00:07:21;;;;;;;7.85;7.00;;;;;;;18.50;100.00;93706.41;2090158;28;20017;-84
2023/08/21 00:08:21;;;;;;;7.30;6.63;;;;;;;18.52;100.00;93703.25;2089792;28;20131;-85
2023/08/21 00:09:22;;;;;;;7.53;6.85;;;;;;;18.52;100.00;93704.00;2089693;28;20054;-85
2023/08/21 00:10:24;;;;;;;8.40;7.30;;;;;;;18.48;100.00;93700.72;2090012;28;20025;-85
2023/08/21 00:11:25;;;;;;;8.15;7.47;;;;;;;18.48;100.00;93705.34;2089799;28;20476;-85
2023/08/21 00:12:26;;;;;;;8.52;7.28;;;;;;;18.59;100.00;93709.13;2084018;28;20034;-84
2023/08/21 00:13:27;;;;;;;8.45;6.95;;;;;;;18.57;100.00;93700.72;2082159;28;20565;-85
2023/08/21 00:14:29;;;;;;;7.20;6.60;;;;;;;18.56;100.00;93703.84;2101424;28;20637;-85
2023/08/21 00:15:30;;;;;;;11.18;7.43;;;;;;;18.50;100.00;93706.41;2098299;28;20028;-84
2023/08/21 00:16:31;;;;;;;7.63;6.93;;;;;;;18.42;100.00;93707.16;2081689;28;20021;-85
2023/08/21 00:17:32;;;;;;;8.35;7.55;;;;;;;18.43;100.00;93700.53;2081940;28;20516;-84
2023/08/21 00:18:34;;;;;;;9.45;6.82;;;;;;;18.37;100.00;93695.00;2090218;28;20501;-85
2023/08/21 00:19:35;;;;;;;10.02;6.75;;;;;;;18.39;100.00;93700.69;2101994;28;20020;-85
2023/08/21 00:20:36;;;;;;;7.80;7.13;;;;;;;18.36;100.00;93696.94;2098334;28;20119;-85
2023/08/21 00:21:37;;;;;;;8.02;7.03;;;;;;;18.37;100.00;93700.41;2089307;28;20024;-84
2023/08/21 00:22:38;;;;;;;7.60;6.90;;;;;;;18.36;100.00;93696.19;2092345;28;20043;-84
2023/08/21 00:23:39;;;;;;;7.60;6.90;;;;;;;18.47;100.00;93693.03;2081821;28;20175;-85
2023/08/21 00:24:40;;;;;;;7.80;7.10;;;;;;;18.42;100.00;93699.06;2094710;28;20016;-83
2023/08/21 00:25:45;;;;;;;7.43;6.75;;;;;;;18.44;100.00;93692.00;2098307;28;20125;-85
2023/08/21 00:26:46;;;;;;;7.85;7.15;;;;;;;18.37;100.00;93695.00;2090992;28;20028;-85
2023/08/21 00:27:47;;;;;;;7.60;6.72;;;;;;;18.33;100.00;93691.69;2089854;28;20021;-85
2023/08/21 00:28:48;;;;;;;9.63;7.68;;;;;;;18.32;100.00;93701.00;2081687;28;20359;-85
2023/08/21 00:29:49;;;;;;;7.97;7.07;;;;;;;18.34;100.00;93690.47;2096210;28;20036;-85
2023/08/21 00:30:49;;;;;;;7.22;6.63;;;;;;;18.36;100.00;93693.50;2098767;28;20028;-85
2023/08/21 00:31:50;;;;;;;10.40;6.72;;;;;;;18.34;100.00;93691.22;2089992;28;20021;-84
2023/08/21 00:32:51;;;;;;;8.52;6.43;;;;;;;18.34;100.00;93690.47;2092482;28;20034;-84
2023/08/21 00:33:52;;;;;;;8.20;7.38;;;;;;;18.34;100.00;93687.75;2089875;28;20508;-85
2023/08/21 00:34:53;;;;;;;8.05;7.28;;;;;;;18.29;100.00;93682.97;2081862;28;20029;-85
2023/08/21 00:35:54;;;;;;;10.05;7.35;;;;;;;18.27;100.00;93688.81;2087225;28;20445;-85
2023/08/21 00:36:55;;;;;;;8.88;7.22;;;;;;;18.32;100.00;93687.47;2088871;28;20476;-84
2023/08/21 00:37:56;;;;;;;8.88;6.40;;;;;;;18.27;100.00;93693.50;2098288;28;20025;-84
2023/08/21 00:38:57;;;;;;;9.05;6.95;;;;;;;18.22;100.00;93680.53;2098558;28;20107;-84
2023/08/21 00:39:58;;;;;;;7.18;6.43;;;;;;;18.30;100.00;93681.75;2097674;28;20024;-84
2023/08/21 00:40:59;;;;;;;7.40;6.45;;;;;;;18.28;100.00;93684.91;2089535;28;20152;-85
2023/08/21 00:42:00;;;;;;;7.50;6.78;;;;;;;18.24;100.00;93683.56;2092624;28;21083;-84
2023/08/21 00:43:01;;;;;;;8.70;6.93;;;;;;;18.23;100.00;93685.53;2094399;28;20032;-85
2023/08/21 00:44:03;;;;;;;8.40;7.43;;;;;;;18.21;100.00;93684.44;2098315;28;20025;-84
2023/08/21 00:45:08;;;;;;;8.15;7.00;;;;;;;18.22;100.00;93683.25;2089987;28;20025;-85
2023/08/21 00:46:10;;;;;;;7.50;6.72;;;;;;;18.27;100.00;93690.78;2106856;28;20069;-84
2023/08/21 00:47:11;;;;;;;7.35;6.60;;;;;;;18.17;100.00;93681.88;2098146;28;20024;-85
2023/08/21 00:48:13;;;;;;;8.43;6.80;;;;;;;18.15;100.00;93683.56;2089627;28;20433;-85
2023/08/21 00:49:14;;;;;;;7.50;6.70;;;;;;;18.12;100.00;93687.91;2082807;28;20032;-85
2023/08/21 00:50:15;;;;;;;8.25;7.00;;;;;;;18.13;100.00;93686.72;2081782;28;20052;-85
2023/08/21 00:51:17;;;;;;;8.85;7.00;;;;;;;18.12;100.00;93687.91;2093754;28;20023;-84
2023/08/21 00:52:18;;;;;;;8.20;7.03;;;;;;;18.12;100.00;93683.25;2089938;28;20462;-84
2023/08/21 00:53:19;;;;;;;7.50;6.88;;;;;;;18.14;100.00;93682.06;2097656;28;20031;-85
2023/08/21 00:54:20;;;;;;;8.25;6.70;;;;;;;18.17;100.00;93683.84;2091645;28;20028;-86
2023/08/21 00:55:22;;;;;;;7.30;6.60;;;;;;;18.11;100.00;93679.03;2098372;28;20354;-84
2023/08/21 00:56:22;;;;;;;7.22;6.50;;;;;;;18.12;100.00;93677.81;2097903;28;20492;-85
2023/08/21 00:57:24;;;;;;;12.18;6.93;;;;;;;18.13;100.00;93678.59;2097794;28;20032;-85
2023/08/21 00:58:25;;;;;;;8.80;6.68;;;;;;;18.08;100.00;93674.53;2081761;28;20394;-84
2023/08/21 00:59:26;;;;;;;7.07;6.47;;;;;;;18.08;100.00;93682.63;2092295;28;20029;-85
2023/08/21 01:00:28;;;;;;;9.55;6.43;;;;;;;18.04;100.00;93671.25;2098191;28;20424;-85
2023/08/21 01:01:30;;;;;;;9.52;6.43;;;;;;;18.01;100.00;93674.84;2085109;28;20108;-87
2023/08/21 01:02:31;;;;;;;7.07;6.38;;;;;;;17.99;100.00;93677.22;2080987;28;20418;-85
2023/08/21 01:03:32;;;;;;;7.10;6.40;;;;;;;17.97;100.00;93676.19;2090053;28;20025;-84
2023/08/21 01:04:33;;;;;;;7.13;6.53;;;;;;;17.89;100.00;93677.66;2093812;28;20017;-85
2023/08/21 01:05:35;;;;;;;8.73;6.80;;;;;;;17.96;100.00;93680.09;2081665;28;20056;-84
2023/08/21 01:06:36;;;;;;;7.50;6.70;;;;;;;17.98;100.00;93680.38;2088802;28;20028;-84
2023/08/21 01:07:51;;;;;;;10.18;6.78;;;;;;;17.99;100.00;93677.22;2096788;28;20457;-85
2023/08/21 01:09:35;;;;;;;8.50;6.70;;;;;;;17.94;100.00;93677.06;2091557;28;20134;-85
2023/08/21 01:10:36;;;;;;;6.68;6.03;;;;;;;17.98;100.00;93673.00;2095630;28;20058;-84
2023/08/21 01:11:47;;;;;;;7.03;6.32;;;;;;;17.92;100.00;93679.47;2089220;28;20118;-85
2023/08/21 01:12:56;;;;;;;6.70;6.20;;;;;;;17.87;100.00;93678.13;2092514;28;20041;-85
2023/08/21 01:14:16;;;;;;;7.93;6.82;;;;;;;17.88;100.00;93676.16;2091887;28;20071;-84
2023/08/21 01:15:18;;;;;;;7.35;6.65;;;;;;;17.93;100.00;93676.31;2095428;28;20029;-84
2023/08/21 01:16:21;;;;;;;9.88;6.97;;;;;;;17.94;100.00;93669.72;2090735;28;20029;-84
2023/08/21 01:17:24;;;;;;;9.52;6.90;;;;;;;17.91;100.00;93678.75;2097610;28;20108;-84
2023/08/21 01:18:26;;;;;;;7.18;6.57;;;;;;;17.90;100.00;93676.47;2086488;28;20017;-84
2023/08/21 01:19:37;;;;;;;7.20;6.25;;;;;;;17.94;100.00;93683.22;2089762;28;20031;-85
2023/08/21 01:20:39;;;;;;;9.90;6.40;;;;;;;17.89;100.00;93683.06;2084121;28;20390;-84
2023/08/21 01:21:41;;;;;;;9.20;6.93;;;;;;;17.79;100.00;93679.63;2086689;28;20108;-86
2023/08/21 01:22:46;;;;;;;8.50;7.20;;;;;;;17.82;100.00;93678.69;2098337;28;20024;-85
2023/08/21 01:23:47;;;;;;;8.70;6.43;;;;;;;17.92;100.00;93687.59;2089957;28;20021;-84
2023/08/21 01:24:48;;;;;;;7.50;6.80;;;;;;;17.92;100.00;93685.66;2089577;28;20029;-85
2023/08/21 01:25:48;;;;;;;7.30;6.60;;;;;;;17.89;100.00;93696.59;2097796;28;20073;-84
2023/08/21 01:26:49;;;;;;;7.03;6.35;;;;;;;17.87;100.00;93694.34;2089583;28;20025;-84
2023/08/21 01:27:51;;;;;;;7.25;6.65;;;;;;;17.79;100.00;93688.47;2100075;28;20048;-84
2023/08/21 01:28:52;;;;;;;6.75;6.15;;;;;;;17.79;100.00;93690.44;2103264;28;20066;-86
2023/08/21 01:29:54;;;;;;;7.88;6.82;;;;;;;17.81;100.00;93690.72;2093213;28;20048;-84
2023/08/21 01:31:03;;;;;;;7.30;6.70;;;;;;;17.76;100.00;93691.31;2106304;28;20466;-84
2023/08/21 01:32:27;;;;;;;8.52;6.85;;;;;;;17.73;100.00;93692.16;2098200;28;20021;-84
2023/08/21 01:33:33;;;;;;;8.52;7.40;;;;;;;17.74;100.00;93697.19;2097585;28;20511;-84
2023/08/21 01:34:37;;;;;;;7.18;6.47;;;;;;;17.75;100.00;93692.53;2090318;28;20052;-84
2023/08/21 01:35:38;;;;;;;9.55;6.60;;;;;;;17.72;100.00;93687.97;2082144;28;20132;-85
2023/08/21 01:36:40;;;;;;;8.40;6.22;;;;;;;17.74;100.00;93704.53;2085726;28;20357;-85
2023/08/21 01:37:42;;;;;;;6.20;5.70;;;;;;;17.75;100.00;93692.53;2089819;28;20362;-84
2023/08/21 01:38:44;;;;;;;6.90;6.25;;;;;;;17.72;100.00;93699.53;2081670;28;20390;-85
2023/08/21 01:39:45;;;;;;;7.22;6.50;;;;;;;17.68;100.00;93698.16;2092200;28;20119;-84
2023/08/21 01:40:47;;;;;;;7.80;7.03;;;;;;;17.71;100.00;93703.44;2097741;28;20329;-85
2023/08/21 01:41:48;;;;;;;9.27;6.45;;;;;;;17.73;100.00;93692.16;2102409;28;20024;-85
2023/08/21 01:42:49;;;;;;;7.07;6.38;;;;;;;17.67;100.00;93697.44;2089810;28;20024;-85
2023/08/21 01:43:50;;;;;;;7.97;6.90;;;;;;;17.68;100.00;93690.81;2089583;28;20028;-84
2023/08/21 01:44:51;;;;;;;6.90;6.30;;;;;;;17.67;100.00;93700.13;2094111;28;20056;-85
2023/08/21 01:45:52;;;;;;;8.20;6.05;;;;;;;17.67;100.00;93694.72;2081275;28;20036;-84
2023/08/21 01:46:53;;;;;;;7.05;6.22;;;;;;;17.66;100.00;93689.78;2089375;28;20039;-84
2023/08/21 01:47:54;;;;;;;7.70;6.07;;;;;;;17.65;100.00;93696.34;2089616;28;20082;-86
2023/08/21 01:48:55;;;;;;;8.07;6.53;;;;;;;17.51;100.00;93693.00;2092354;28;20074;-85
2023/08/21 01:49:56;;;;;;;9.70;6.35;;;;;;;17.52;100.00;93697.25;2089306;28;20047;-85
2023/08/21 01:50:57;;;;;;;8.85;6.25;;;;;;;17.50;100.00;93688.81;2081307;28;20453;-84
2023/08/21 01:51:58;;;;;;;7.43;6.10;;;;;;;17.52;100.00;93694.53;2088129;28;20385;-86
2023/08/21 01:52:59;;;;;;;6.82;5.97;;;;;;;17.53;100.00;93696.03;2089646;28;20021;-84
2023/08/21 01:54:00;;;;;;;7.10;6.28;;;;;;;17.59;100.00;93691.53;2088974;28;20048;-84
2023/08/21 01:55:01;;;;;;;10.00;6.10;;;;;;;17.61;100.00;93689.16;2102215;28;20453;-84
2023/08/21 01:56:02;;;;;;;7.75;6.50;;;;;;;17.64;100.00;93695.59;2097626;28;20055;-85
2023/08/21 01:57:03;;;;;;;8.00;6.20;;;;;;;17.61;100.00;93691.09;2097329;28;20024;-84
2023/08/21 01:58:04;;;;;;;6.97;6.32;;;;;;;17.56;100.00;93692.44;2095170;28;20082;-84
2023/08/21 01:59:06;;;;;;;6.78;6.20;;;;;;;17.62;100.00;93693.34;2097742;28;20027;-84
2023/08/21 02:00:08;;;;;;;10.73;6.55;;;;;;;17.61;100.00;93694.56;2089518;28;20036;-85
2023/08/21 02:01:09;;;;;;;6.32;5.72;;;;;;;17.66;100.00;93684.34;2089784;28;20424;-84
2023/08/21 02:02:10;;;;;;;7.05;6.38;;;;;;;17.61;100.00;93688.41;2089512;28;20033;-85
2023/08/21 02:03:11;;;;;;;9.15;6.30;;;;;;;17.62;100.00;93692.59;2092449;28;20016;-85
2023/08/21 02:04:12;;;;;;;6.95;6.22;;;;;;;17.61;100.00;93685.69;2097790;28;20496;-85
2023/08/21 02:05:19;;;;;;;7.85;6.32;;;;;;;17.54;100.00;93685.97;2105865;28;20349;-85
2023/08/21 02:06:20;;;;;;;8.02;6.00;;;;;;;17.42;100.00;93684.13;2104870;28;20020;-85
2023/08/21 02:07:21;;;;;;;6.90;6.25;;;;;;;17.46;100.00;93682.03;2089643;28;20025;-84
2023/08/21 02:08:22;;;;;;;7.18;6.47;;;;;;;17.47;100.00;93688.94;2094763;28;20024;-84
2023/08/21 02:09:23;;;;;;;8.95;6.53;;;;;;;17.47;100.00;93687.03;2089355;28;20425;-87
2023/08/21 02:10:23;;;;;;;7.65;6.18;;;;;;;17.52;100.00;93694.53;2094602;28;20021;-84
2023/08/21 02:11:24;;;;;;;7.70;6.93;;;;;;;17.56;100.00;93687.03;2089238;28;20021;-85
2023/08/21 02:12:25;;;;;;;8.02;6.75;;;;;;;17.59;100.00;93686.13;2089220;28;20024;-85
2023/08/21 02:13:27;;;;;;;6.88;6.20;;;;;;;17.55;100.00;93690.91;2091411;28;20109;-84
2023/08/21 02:14:28;;;;;;;7.70;6.20;;;;;;;17.53;100.00;93687.94;2105368;28;20032;-84
2023/08/21 02:15:29;;;;;;;7.50;6.55;;;;;;;17.61;100.00;93675.63;2097695;28;20054;-85
2023/08/21 02:16:30;;;;;;;9.05;6.43;;;;;;;17.53;100.00;93682.53;2089145;28;20079;-85
2023/08/21 02:17:32;;;;;;;8.75;6.60;;;;;;;17.56;100.00;93680.84;2085832;28;20116;-84
2023/08/21 02:18:33;;;;;;;6.45;5.85;;;;;;;17.53;100.00;93676.38;2086383;28;20036;-85
2023/08/21 02:19:34;;;;;;;10.75;6.85;;;;;;;17.49;100.00;93676.50;2097756;28;20123;-84
2023/08/21 02:22:38;;;;;;;6.88;6.07;;;;;;;17.17;100.00;93682.41;2146902;27;20569;-81
2023/08/21 02:23:39;;;;;;;8.38;6.38;;;;;;;17.13;100.00;93677.13;2118744;28;20031;-81
2023/08/21 02:24:40;;;;;;;11.02;6.20;;;;;;;17.14;100.00;93689.44;2112516;27;20373;-81
2023/08/21 02:25:41;;;;;;;9.43;6.75;;;;;;;17.14;100.00;93681.31;2128045;27;20073;-80
2023/08/21 02:26:45;;;;;;;7.40;6.55;;;;;;;17.15;100.00;93679.38;2111631;28;20023;-81
2023/08/21 02:27:46;;;;;;;7.65;6.50;;;;;;;17.11;100.00;93682.19;2112473;27;20028;-80
2023/08/21 02:28:47;;;;;;;9.20;6.60;;;;;;;17.13;100.00;93685.22;2120103;27;20105;-83
2023/08/21 02:29:48;;;;;;;6.82;6.13;;;;;;;17.19;100.00;93672.63;2126724;27;20047;-82
2023/08/21 02:30:48;;;;;;;9.65;6.63;;;;;;;17.19;100.00;93680.00;2111112;28;20039;-81
2023/08/21 02:31:49;;;;;;;6.50;5.90;;;;;;;17.21;100.00;93678.38;2107551;28;20445;-81
2023/08/21 02:32:53;;;;;;;6.97;6.13;;;;;;;17.19;100.00;93680.75;2114274;28;20402;-80
2023/08/21 02:33:55;;;;;;;11.38;6.38;;;;;;;17.18;100.00;93676.53;2128396;27;20031;-81
2023/08/21 02:34:55;;;;;;;8.93;6.28;;;;;;;17.16;100.00;93675.47;2112696;28;20027;-82
2023/08/21 02:35:56;;;;;;;8.10;6.28;;;;;;;17.15;100.00;93673.97;2109121;28;20035;-81
2023/08/21 02:36:58;;;;;;;6.78;6.18;;;;;;;17.17;100.00;93672.34;2115290;28;20023;-81
2023/08/21 02:37:59;;;;;;;7.10;6.40;;;;;;;17.09;100.00;93679.94;2116288;27;20023;-84
2023/08/21 02:39:00;;;;;;;10.63;6.60;;;;;;;17.15;100.00;93673.97;2123888;27;20368;-81
2023/08/21 02:40:01;;;;;;;7.00;6.40;;;;;;;17.15;100.00;93677.41;2124415;27;20117;-81
2023/08/21 02:41:02;;;;;;;7.13;6.50;;;;;;;17.11;100.00;93672.16;2120258;27;20050;-81
2023/08/21 02:42:03;;;;;;;7.32;6.35;;;;;;;17.07;100.00;93676.94;2123413;27;20031;-81
2023/08/21 02:43:04;;;;;;;6.78;6.10;;;;;;;17.08;100.00;93675.00;2123327;27;20107;-80
2023/08/21 02:44:05;;;;;;;6.47;5.88;;;;;;;17.08;100.00;93675.00;2123850;27;20073;-81
2023/08/21 02:45:09;;;;;;;9.65;6.82;;;;;;;17.11;100.00;93671.41;2116058;28;20062;-80
2023/08/21 02:46:10;;;;;;;6.35;5.80;;;;;;;17.02;100.00;93674.06;2109552;28;20023;-81
2023/08/21 02:47:11;;;;;;;8.38;6.95;;;;;;;17.02;100.00;93674.81;2116227;28;20373;-80
2023/08/21 02:48:12;;;;;;;7.18;6.50;;;;;;;17.04;100.00;93675.13;2120207;28;20572;-81
2023/08/21 02:49:13;;;;;;;6.60;6.00;;;;;;;17.04;100.00;93680.53;2112977;28;20479;-81
2023/08/21 02:50:14;;;;;;;8.05;6.50;;;;;;;16.99;100.00;93666.84;2126041;27;20027;-81
2023/08/21 02:51:15;;;;;;;6.80;6.30;;;;;;;17.02;100.00;93671.34;2134843;27;20033;-80
2023/08/21 02:52:17;;;;;;;8.35;6.43;;;;;;;17.01;100.00;93672.56;2123852;27;20029;-81
2023/08/21 02:53:18;;;;;;;6.90;6.25;;;;;;;17.05;100.00;93670.47;2124537;27;20026;-80
2023/08/21 02:54:19;;;;;;;6.80;6.10;;;;;;;17.07;100.00;93674.22;2123889;27;20046;-81
2023/08/21 02:55:20;;;;;;;7.20;6.35;;;;;;;17.07;100.00;93673.47;2109907;28;20358;-80
2023/08/21 02:56:21;;;;;;;7.90;6.70;;;;;;;17.03;100.00;93667.44;2106971;28;20502;-80
2023/08/21 02:57:24;;;;;;;7.32;6.60;;;;;;;16.97;100.00;93669.25;2119693;27;20046;-81
2023/08/21 02:58:25;;;;;;;7.22;6.53;;;;;;;16.96;100.00;93668.50;2111749;28;20023;-81
2023/08/21 02:59:26;;;;;;;7.38;6.68;;;;;;;16.94;100.00;93665.47;2106901;28;20134;-81
2023/08/21 03:00:27;;;;;;;7.88;6.60;;;;;;;16.93;100.00;93666.66;2112565;28;20058;-81
2023/08/21 03:01:28;;;;;;;7.80;7.15;;;;;;;16.94;100.00;93673.56;2123843;27;20108;-81
2023/08/21 03:02:28;;;;;;;7.53;6.72;;;;;;;16.95;100.00;93672.38;2125877;27;20034;-80
2023/08/21 03:03:29;;;;;;;6.95;6.28;;;;;;;16.97;100.00;93669.25;2124406;27;20018;-80
2023/08/21 03:04:30;;;;;;;6.80;6.13;;;;;;;16.94;100.00;93664.72;2104434;28;20024;-83
2023/08/21 03:05:31;;;;;;;7.50;6.32;;;;;;;16.93;100.00;93671.31;2107417;28;20032;-83
2023/08/21 03:06:32;;;;;;;7.15;6.45;;;;;;;16.89;100.00;93668.00;2107469;27;20051;-82
2023/08/21 03:07:34;;;;;;;7.13;6.47;;;;;;;16.82;100.00;93664.38;2123561;27;20378;-80
2023/08/21 03:08:35;;;;;;;6.82;6.13;;;;;;;16.88;100.00;93667.25;2124175;27;20380;-80
2023/08/21 03:09:37;;;;;;;6.97;6.38;;;;;;;16.96;100.00;93665.03;2117370;28;20121;-81
2023/08/21 03:10:37;;;;;;;7.47;6.70;;;;;;;16.97;100.00;93669.97;2124063;27;20025;-80
2023/08/21 03:11:38;;;;;;;7.03;6.32;;;;;;;16.95;100.00;93664.28;2124209;27;20113;-80
2023/08/21 03:12:39;;;;;;;7.50;6.78;;;;;;;16.89;100.00;93665.28;2111397;27;20027;-80
2023/08/21 03:13:41;;;;;;;6.97;6.40;;;;;;;16.87;100.00;93665.75;2111565;28;20104;-81
2023/08/21 03:14:42;;;;;;;7.63;6.60;;;;;;;16.84;100.00;93672.03;2102599;28;20028;-81
2023/08/21 03:15:43;;;;;;;7.70;6.63;;;;;;;16.81;100.00;93672.91;2107230;28;20028;-81
2023/08/21 03:16:44;;;;;;;7.07;6.32;;;;;;;16.82;100.00;93677.13;2123651;27;20103;-83
2023/08/21 03:17:45;;;;;;;9.35;6.70;;;;;;;16.79;100.00;93672.59;2124119;27;20431;-83
2023/08/21 03:18:56;;;;;;;7.15;6.00;;;;;;;16.81;100.00;93667.50;2124129;27;20025;-83
2023/08/21 03:19:57;;;;;;;9.38;6.65;;;;;;;16.77;100.00;93674.97;2125077;27;20416;-83
2023/08/21 03:20:58;;;;;;;7.13;6.43;;;;;;;16.76;100.00;93676.16;2126129;27;20035;-83
2023/08/21 03:21:59;;;;;;;7.75;7.05;;;;;;;16.79;100.00;93673.34;2124059;27;20059;-81
2023/08/21 03:23:00;;;;;;;7.22;6.45;;;;;;;16.82;100.00;93671.72;2123369;27;20047;-79
2023/08/21 03:24:01;;;;;;;8.05;6.55;;;;;;;16.82;100.00;93675.16;2120115;27;20027;-80
2023/08/21 03:25:02;;;;;;;10.00;6.40;;;;;;;16.84;100.00;93672.03;2115331;28;20383;-84
2023/08/21 03:26:03;;;;;;;6.78;6.18;;;;;;;16.77;100.00;93675.75;2119355;27;20098;-81
2023/08/21 03:27:05;;;;;;;7.60;6.90;;;;;;;16.74;100.00;93665.06;2107621;28;20114;-81
2023/08/21 03:28:06;;;;;;;7.43;6.72;;;;;;;16.71;100.00;93665.91;2114856;27;20028;-81
2023/08/21 03:29:07;;;;;;;8.77;6.85;;;;;;;16.71;100.00;93669.38;2123985;27;20100;-81
2023/08/21 03:30:08;;;;;;;7.30;6.70;;;;;;;16.76;100.00;93671.53;2111484;28;20053;-80
2023/08/21 03:31:09;;;;;;;7.40;6.80;;;;;;;16.73;100.00;93668.97;2117143;27;20024;-80
2023/08/21 03:32:10;;;;;;;6.88;6.20;;;;;;;16.77;100.00;93673.03;2124967;27;20168;-83
2023/08/21 03:33:11;;;;;;;7.05;6.35;;;;;;;16.81;100.00;93673.66;2126433;27;20015;-83
2023/08/21 03:34:12;;;;;;;7.28;6.60;;;;;;;16.78;100.00;93679.19;2116144;27;20593;-80
2023/08/21 03:35:13;;;;;;;7.03;6.32;;;;;;;16.71;100.00;93674.00;2110026;28;20038;-81
2023/08/21 03:36:14;;;;;;;7.18;6.50;;;;;;;16.68;100.00;93674.88;2116863;27;20278;-80
2023/08/21 03:37:15;;;;;;;7.35;6.60;;;;;;;16.72;100.00;93678.22;2127625;27;20019;-81
2023/08/21 03:38:16;;;;;;;7.28;6.55;;;;;;;16.68;100.00;93672.97;2117587;27;20024;-80
2023/08/21 03:39:16;;;;;;;8.18;7.38;;;;;;;16.69;100.00;93677.16;2109335;28;20115;-81
2023/08/21 03:40:17;;;;;;;8.93;6.68;;;;;;;16.67;100.00;93673.38;2111779;28;20027;-80
2023/08/21 03:41:18;;;;;;;9.23;7.18;;;;;;;16.68;100.00;93674.88;2107376;28;20019;-81
2023/08/21 03:42:19;;;;;;;7.75;6.95;;;;;;;16.68;100.00;93675.66;2106548;28;20087;-81
2023/08/21 03:43:20;;;;;;;7.20;6.57;;;;;;;16.67;100.00;93668.75;2108390;28;20031;-82
2023/08/21 03:44:21;;;;;;;7.97;7.15;;;;;;;16.62;100.00;93672.75;2109548;28;20116;-83
2023/08/21 03:45:22;;;;;;;8.85;6.80;;;;;;;16.67;100.00;93671.44;2114141;28;20077;-80
2023/08/21 03:46:25;;;;;;;7.80;7.10;;;;;;;16.63;100.00;93676.22;2109536;28;20016;-83
2023/08/21 03:47:26;;;;;;;9.35;6.53;;;;;;;16.62;100.00;93678.16;2101639;28;20040;-83
2023/08/21 03:48:27;;;;;;;7.00;6.30;;;;;;;16.55;100.00;93675.72;2109434;27;20023;-82
2023/08/21 03:49:28;;;;;;;7.88;7.07;;;;;;;16.62;100.00;93674.72;2126931;27;20042;-83
2023/08/21 03:50:29;;;;;;;8.07;7.18;;;;;;;16.62;100.00;93678.16;2118378;27;20068;-83
2023/08/21 03:51:30;;;;;;;7.03;6.32;;;;;;;16.66;100.00;93686.13;2109325;28;20034;-83
2023/08/21 03:52:31;;;;;;;9.70;6.82;;;;;;;16.61;100.00;93676.66;2113401;28;20019;-83
2023/08/21 03:53:32;;;;;;;6.97;6.28;;;;;;;16.61;100.00;93682.06;2114205;27;20409;-83
2023/08/21 03:54:33;;;;;;;7.88;6.28;;;;;;;16.60;100.00;93677.88;2121341;27;20023;-83
2023/08/21 03:55:34;;;;;;;8.82;6.65;;;;;;;16.58;100.00;93680.22;2110117;28;20023;-83
2023/08/21 03:56:35;;;;;;;6.90;6.28;;;;;;;16.59;100.00;93686.38;2108708;28;20095;-83
2023/08/21 03:57:36;;;;;;;10.15;6.47;;;;;;;16.60;100.00;93683.25;2105684;28;20016;-84
2023/08/21 03:58:37;;;;;;;8.82;6.78;;;;;;;16.59;100.00;93681.75;2101992;28;20036;-83
2023/08/21 03:59:38;;;;;;;7.15;6.45;;;;;;;16.54;100.00;93681.56;2112723;28;20031;-83
2023/08/21 04:00:39;;;;;;;9.02;6.50;;;;;;;16.55;100.00;93686.53;2105624;28;20052;-83
2023/08/21 04:01:40;;;;;;;7.10;6.40;;;;;;;16.54;100.00;93687.69;2110933;28;20027;-80
2023/08/21 04:02:41;;;;;;;7.63;6.30;;;;;;;16.52;100.00;93686.66;2108768;28;20035;-81
2023/08/21 04:03:42;;;;;;;7.95;6.25;;;;;;;16.54;100.00;93692.34;2102562;28;20058;-81
2023/08/21 04:04:43;;;;;;;8.15;6.35;;;;;;;16.51;100.00;93693.25;2092556;28;20086;-80
2023/08/21 04:05:44;;;;;;;7.22;6.25;;;;;;;16.55;100.00;93691.94;2098674;28;20151;-81
2023/08/21 04:06:45;;;;;;;6.88;6.18;;;;;;;16.60;100.00;93693.31;2119710;27;20016;-83
2023/08/21 04:07:45;;;;;;;7.88;6.10;;;;;;;16.56;100.00;93690.72;2117523;27;20026;-81
2023/08/21 04:08:46;;;;;;;7.63;6.35;;;;;;;16.54;100.00;93698.50;2103058;28;20151;-81
2023/08/21 04:09:47;;;;;;;7.03;6.43;;;;;;;16.50;100.00;93697.88;2094323;28;20031;-80
2023/08/21 04:10:48;;;;;;;6.80;6.10;;;;;;;16.53;100.00;93707.03;2113648;28;20023;-82
2023/08/21 04:11:49;;;;;;;9.52;6.40;;;;;;;16.50;100.00;93700.56;2114872;27;20082;-83
2023/08/21 04:12:50;;;;;;;6.32;5.70;;;;;;;16.46;100.00;93696.47;2110735;28;20024;-83
2023/08/21 04:13:51;;;;;;;6.85;6.25;;;;;;;16.47;100.00;93698.00;2105117;28;20468;-82
2023/08/21 04:14:52;;;;;;;6.88;6.28;;;;;;;16.49;100.00;93699.06;2103240;28;20280;-83
2023/08/21 04:15:55;;;;;;;6.70;6.10;;;;;;;16.44;100.00;93701.59;2103943;28;20396;-83
2023/08/21 04:16:56;;;;;;;7.15;6.55;;;;;;;16.40;100.00;93698.25;2109560;28;20020;-83
2023/08/21 04:17:57;;;;;;;6.53;5.65;;;;;;;16.39;100.00;93697.50;2104008;28;20473;-83
2023/08/21 04:18:58;;;;;;;7.43;6.82;;;;;;;16.42;100.00;93695.84;2105508;28;20030;-80
2023/08/21 04:19:59;;;;;;;7.53;5.72;;;;;;;16.42;100.00;93696.63;2116521;27;20019;-80
2023/08/21 04:21:00;;;;;;;8.52;6.57;;;;;;;16.42;100.00;93696.63;2117824;27;20443;-80
2023/08/21 04:22:02;;;;;;;7.20;6.45;;;;;;;16.40;100.00;93696.31;2117683;27;20086;-81
2023/08/21 04:23:03;;;;;;;6.68;6.18;;;;;;;16.36;100.00;93695.66;2120806;27;20019;-81
2023/08/21 04:24:04;;;;;;;8.32;6.40;;;;;;;16.36;100.00;93687.56;2109305;28;20103;-81
2023/08/21 04:25:06;;;;;;;7.93;6.45;;;;;;;16.40;100.00;93696.31;2096547;28;20027;-80
2023/08/21 04:26:07;;;;;;;8.35;5.80;;;;;;;16.43;100.00;93694.69;2093251;28;20031;-81
2023/08/21 04:27:08;;;;;;;7.28;6.55;;;;;;;16.45;100.00;93701.13;2104564;28;20024;-81
2023/08/21 04:28:09;;;;;;;6.68;6.07;;;;;;;16.45;100.00;93689.59;2097959;28;20116;-81
2023/08/21 04:29:10;;;;;;;6.93;6.35;;;;;;;16.41;100.00;93710.53;2102082;28;20154;-81
2023/08/21 04:30:12;;;;;;;7.10;6.50;;;;;;;16.39;100.00;93691.34;2112070;28;20030;-83
2023/08/21 04:31:13;;;;;;;6.78;6.18;;;;;;;16.36;100.00;93696.41;2109107;28;20103;-83
2023/08/21 04:32:15;;;;;;;10.85;5.85;;;;;;;16.37;100.00;93694.47;2101181;28;20058;-82
2023/08/21 04:33:15;;;;;;;7.03;6.32;;;;;;;16.38;100.00;93690.59;2100720;28;20024;-83
2023/08/21 04:34:18;;;;;;;9.70;6.65;;;;;;;16.40;100.00;93695.56;2100858;28;20028;-82
2023/08/21 04:35:19;;;;;;;8.18;5.93;;;;;;;16.43;100.00;93692.72;2101118;27;20028;-81
2023/08/21 04:36:20;;;;;;;8.68;6.45;;;;;;;16.44;100.00;93701.59;2098942;28;20051;-80
2023/08/21 04:37:21;;;;;;;7.15;5.82;;;;;;;16.39;100.00;93697.50;2103830;28;20040;-81
2023/08/21 04:38:22;;;;;;;6.78;6.10;;;;;;;16.39;100.00;93696.75;2100433;28;20102;-83
2023/08/21 04:39:22;;;;;;;9.10;6.70;;;;;;;16.42;100.00;93696.63;2108507;28;20060;-83
2023/08/21 04:40:24;;;;;;;7.15;6.55;;;;;;;16.40;100.00;93695.56;2117882;27;20028;-80
2023/08/21 04:41:25;;;;;;;6.95;6.28;;;;;;;16.40;100.00;93700.94;2111088;28;20084;-82
2023/08/21 04:42:26;;;;;;;9.77;6.85;;;;;;;16.38;100.00;93704.09;2105061;28;20443;-81
2023/08/21 04:43:27;;;;;;;6.60;6.10;;;;;;;16.35;100.00;93702.25;2112986;28;20035;-81
2023/08/21 04:44:30;;;;;;;6.80;6.20;;;;;;;16.39;100.00;93700.19;2112414;28;20027;-80
2023/08/21 04:45:31;;;;;;;8.80;5.85;;;;;;;16.39;100.00;93702.16;2109151;28;20024;-80
2023/08/21 04:46:32;;;;;;;6.50;5.97;;;;;;;16.43;100.00;93698.13;2103974;28;20483;-79
2023/08/21 04:47:33;;;;;;;7.18;6.20;;;;;;;16.42;100.00;93699.34;2105234;28;20031;-80
2023/08/21 04:48:33;;;;;;;6.70;6.10;;;;;;;16.46;100.00;93704.59;2117297;27;20058;-81